createdAt,value
2018-10-11T00:00:31.619Z,32.80
2018-10-11T00:01:31.766Z,27.40
2018-10-11T00:02:31.918Z,28.90
2018-10-11T00:03:32.064Z,26.50
2018-10-11T00:04:32.220Z,29.10
2018-10-11T00:05:32.369Z,29.00
2018-10-11T00:06:32.519Z,27.10
2018-10-11T00:07:32.669Z,27.80
2018-10-11T00:08:32.819Z,25.20
2018-10-11T00:09:32.967Z,25.70
2018-10-11T00:10:33.119Z,25.50
2018-10-11T00:11:33.268Z,24.20
2018-10-11T00:12:33.414Z,26.30
2018-10-11T00:13:33.564Z,27.10
2018-10-11T00:14:33.714Z,29.60
2018-10-11T00:15:33.863Z,26.80
2018-10-11T00:16:34.013Z,29.10
2018-10-11T00:17:34.167Z,27.80
2018-10-11T00:18:34.309Z,26.60
2018-10-11T00:19:34.467Z,29.50
2018-10-11T00:20:34.616Z,25.20
2018-10-11T00:21:34.765Z,26.50
2018-10-11T00:22:34.915Z,25.60
2018-10-11T00:23:35.065Z,25.60
2018-10-11T00:24:35.217Z,26.70
2018-10-11T00:25:35.372Z,29.00
2018-10-11T00:26:35.516Z,26.30
2018-10-11T00:27:35.668Z,27.60
2018-10-11T00:28:35.817Z,28.40
2018-10-11T00:29:35.967Z,27.20
2018-10-11T00:30:36.128Z,27.10
2018-10-11T00:31:36.267Z,28.00
2018-10-11T00:32:36.415Z,30.60
2018-10-11T00:33:36.570Z,26.40
2018-10-11T00:34:36.745Z,28.70
2018-10-11T00:35:36.866Z,28.00
2018-10-11T00:36:37.013Z,26.10
2018-10-11T00:37:37.163Z,25.40
2018-10-11T00:38:37.313Z,26.70
2018-10-11T00:39:37.460Z,26.50
2018-10-11T00:40:37.609Z,26.80
2018-10-11T00:41:37.759Z,26.90
2018-10-11T00:42:37.909Z,27.70
2018-10-11T00:43:38.058Z,27.50
2018-10-11T00:44:38.207Z,28.60
2018-10-11T00:45:38.358Z,26.00
2018-10-11T00:46:38.510Z,26.50
2018-10-11T00:47:38.661Z,27.00
2018-10-11T00:48:38.808Z,26.70
2018-10-11T00:49:38.964Z,27.40
2018-10-11T00:50:39.109Z,25.30
2018-10-11T00:51:39.259Z,24.60
2018-10-11T00:52:39.410Z,22.50
2018-10-11T00:53:39.560Z,22.10
2018-10-11T00:54:39.707Z,24.30
2018-10-11T00:55:39.856Z,20.60
2018-10-11T00:56:40.008Z,22.10
2018-10-11T00:57:40.157Z,21.90
2018-10-11T00:58:40.307Z,21.10
2018-10-11T00:59:40.458Z,24.40
2018-10-11T01:00:40.605Z,23.40
2018-10-11T01:01:40.756Z,22.60
2018-10-11T01:02:40.906Z,25.20
2018-10-11T01:03:41.059Z,27.80
2018-10-11T01:04:41.203Z,26.20
2018-10-11T01:05:41.354Z,24.80
2018-10-11T01:06:41.502Z,23.70
2018-10-11T01:07:41.653Z,26.70
2018-10-11T01:08:41.802Z,22.70
2018-10-11T01:09:41.952Z,23.40
2018-10-11T01:10:42.102Z,23.80
2018-10-11T01:11:42.251Z,26.20
2018-10-11T01:12:42.400Z,24.10
2018-10-11T01:13:42.548Z,24.10
2018-10-11T01:14:42.698Z,23.40
2018-10-11T01:15:42.851Z,25.00
2018-10-11T01:16:43.001Z,27.00
2018-10-11T01:17:43.146Z,24.90
2018-10-11T01:18:43.300Z,26.50
2018-10-11T01:19:43.446Z,25.70
2018-10-11T01:20:43.595Z,25.80
2018-10-11T01:21:43.751Z,26.30
2018-10-11T01:22:43.897Z,23.90
2018-10-11T01:23:44.073Z,25.20
2018-10-11T01:24:44.198Z,24.00
2018-10-11T01:25:44.345Z,23.80
2018-10-11T01:26:44.492Z,24.60
2018-10-11T01:27:44.641Z,25.60
2018-10-11T01:28:44.792Z,26.70
2018-10-11T01:29:45.056Z,29.90
2018-10-11T01:30:45.091Z,29.30
2018-10-11T01:31:45.242Z,25.30
2018-10-11T01:32:45.391Z,27.70
2018-10-11T01:33:45.542Z,26.60
2018-10-11T01:34:45.691Z,27.20
2018-10-11T01:35:45.838Z,25.40
2018-10-11T01:36:45.989Z,24.90
2018-10-11T01:37:46.138Z,26.60
2018-10-11T01:38:46.293Z,25.30
2018-10-11T01:39:46.438Z,24.70
2018-10-11T01:40:46.588Z,24.50
2018-10-11T01:41:46.737Z,22.90
2018-10-11T01:42:46.887Z,24.00
2018-10-11T01:43:47.035Z,23.50
2018-10-11T01:44:47.186Z,24.80
2018-10-11T01:45:47.335Z,23.70
2018-10-11T01:46:47.481Z,23.60
2018-10-11T01:47:47.632Z,24.40
2018-10-11T01:48:47.784Z,22.90
2018-10-11T01:49:47.931Z,27.00
2018-10-11T01:50:48.083Z,25.50
2018-10-11T01:51:48.228Z,25.50
2018-10-11T01:52:48.378Z,28.30
2018-10-11T01:53:48.528Z,27.30
2018-10-11T01:54:48.677Z,25.60
2018-10-11T01:55:48.829Z,26.40
2018-10-11T01:56:49.067Z,25.80
2018-10-11T01:57:49.124Z,27.20
2018-10-11T01:58:49.273Z,26.10
2018-10-11T01:59:49.424Z,28.30
2018-10-11T02:00:49.574Z,25.70
2018-10-11T02:01:49.724Z,26.10
2018-10-11T02:02:49.872Z,27.30
2018-10-11T02:03:50.020Z,29.80
2018-10-11T02:04:50.170Z,28.70
2018-10-11T02:05:50.327Z,26.60
2018-10-11T02:06:50.469Z,29.20
2018-10-11T02:07:50.620Z,29.70
2018-10-11T02:08:50.768Z,32.20
2018-10-11T02:09:50.921Z,31.70
2018-10-11T02:10:51.068Z,27.40
2018-10-11T02:11:51.216Z,30.90
2018-10-11T02:12:51.367Z,28.70
2018-10-11T02:13:51.516Z,26.30
2018-10-11T02:14:51.663Z,29.30
2018-10-11T02:15:51.814Z,30.10
2018-10-11T02:16:51.962Z,31.50
2018-10-11T02:17:52.116Z,29.00
2018-10-11T02:18:52.265Z,30.20
2018-10-11T02:19:52.414Z,31.80
2018-10-11T02:20:52.562Z,33.90
2018-10-11T02:21:52.711Z,33.70
2018-10-11T02:22:52.859Z,33.60
2018-10-11T02:23:53.011Z,34.20
2018-10-11T02:24:53.163Z,33.50
2018-10-11T02:25:53.310Z,32.80
2018-10-11T02:26:53.460Z,30.70
2018-10-11T02:27:53.610Z,31.40
2018-10-11T02:28:53.758Z,28.50
2018-10-11T02:29:53.908Z,27.70
2018-10-11T02:30:54.061Z,28.20
2018-10-11T02:31:54.257Z,26.70
2018-10-11T02:32:54.362Z,23.60
2018-10-11T02:33:54.507Z,24.30
2018-10-11T02:34:54.657Z,24.60
2018-10-11T02:35:54.806Z,25.30
2018-10-11T02:36:54.966Z,24.60
2018-10-11T02:37:55.124Z,23.60
2018-10-11T02:38:55.256Z,26.40
2018-10-11T02:39:55.405Z,24.90
2018-10-11T02:40:55.553Z,26.50
2018-10-11T02:41:55.704Z,26.90
2018-10-11T02:42:55.857Z,25.40
2018-10-11T02:43:56.004Z,27.70
2018-10-11T02:44:56.155Z,28.00
2018-10-11T02:45:56.302Z,26.50
2018-10-11T02:46:56.453Z,28.10
2018-10-11T02:47:56.602Z,28.80
2018-10-11T02:48:56.755Z,29.00
2018-10-11T02:49:56.900Z,28.70
2018-10-11T02:50:57.050Z,27.60
2018-10-11T02:51:57.199Z,28.30
2018-10-11T02:52:57.349Z,33.30
2018-10-11T02:53:57.496Z,33.30
2018-10-11T02:54:57.650Z,29.90
2018-10-11T02:55:57.807Z,31.10
2018-10-11T02:56:57.949Z,31.80
2018-10-11T02:57:58.096Z,31.10
2018-10-11T02:58:58.246Z,29.80
2018-10-11T02:59:58.395Z,28.30
2018-10-11T03:00:58.545Z,29.60
2018-10-11T03:01:58.698Z,30.80
2018-10-11T03:02:58.846Z,26.40
2018-10-11T03:03:58.997Z,30.10
2018-10-11T03:04:59.140Z,28.90
2018-10-11T03:05:59.287Z,27.00
2018-10-11T03:06:59.437Z,30.00
2018-10-11T03:07:59.586Z,33.00
2018-10-11T03:08:59.742Z,30.20
2018-10-11T03:09:59.888Z,31.60
2018-10-11T03:11:00.038Z,27.00
2018-10-11T03:12:00.185Z,27.40
2018-10-11T03:13:00.332Z,28.70
2018-10-11T03:14:00.487Z,28.50
2018-10-11T03:15:00.638Z,25.90
2018-10-11T03:16:00.783Z,24.40
2018-10-11T03:17:00.938Z,24.30
2018-10-11T03:18:01.084Z,24.20
2018-10-11T03:19:01.241Z,25.20
2018-10-11T03:20:01.383Z,25.00
2018-10-11T03:21:01.546Z,23.80
2018-10-11T03:22:01.680Z,26.80
2018-10-11T03:23:01.832Z,25.50
2018-10-11T03:24:01.979Z,24.00
2018-10-11T03:25:02.131Z,25.10
2018-10-11T03:26:02.283Z,29.30
2018-10-11T03:27:02.428Z,26.30
2018-10-11T03:28:02.577Z,28.90
2018-10-11T03:29:02.727Z,22.70
2018-10-11T03:30:02.875Z,29.50
2018-10-11T03:31:03.028Z,24.40
2018-10-11T03:32:03.178Z,26.40
2018-10-11T03:33:03.328Z,24.70
2018-10-11T03:34:03.477Z,24.60
2018-10-11T03:35:03.626Z,23.90
2018-10-11T03:36:03.776Z,24.30
2018-10-11T03:37:03.927Z,24.50
2018-10-11T03:38:04.076Z,22.90
2018-10-11T03:39:04.226Z,22.90
2018-10-11T03:40:04.377Z,23.90
2018-10-11T03:41:04.527Z,21.40
2018-10-11T03:42:04.677Z,23.60
2018-10-11T03:43:04.825Z,24.30
2018-10-11T03:44:04.975Z,22.80
2018-10-11T03:45:05.123Z,21.10
2018-10-11T03:46:05.275Z,22.00
2018-10-11T03:47:05.425Z,23.80
2018-10-11T03:48:05.573Z,21.60
2018-10-11T03:49:05.725Z,25.10
2018-10-11T03:50:05.873Z,24.90
2018-10-11T03:51:06.021Z,24.40
2018-10-11T03:52:06.172Z,23.30
2018-10-11T03:53:06.325Z,24.90
2018-10-11T03:54:06.472Z,27.90
2018-10-11T03:55:06.627Z,24.70
2018-10-11T03:56:06.776Z,26.60
2018-10-11T03:57:06.960Z,24.90
2018-10-11T03:58:07.108Z,27.40
2018-10-11T03:59:07.259Z,25.10
2018-10-11T04:00:07.408Z,25.90
2018-10-11T04:01:07.557Z,24.30
2018-10-11T04:02:07.706Z,27.30
2018-10-11T04:03:07.855Z,23.50
2018-10-11T04:04:08.010Z,24.70
2018-10-11T04:05:08.158Z,24.90
2018-10-11T04:06:08.306Z,25.20
2018-10-11T04:07:08.453Z,24.40
2018-10-11T04:08:08.603Z,27.70
2018-10-11T04:09:08.755Z,28.40
2018-10-11T04:10:08.905Z,26.70
2018-10-11T04:11:09.052Z,28.30
2018-10-11T04:12:09.202Z,27.20
2018-10-11T04:13:09.354Z,27.70
2018-10-11T04:14:09.501Z,26.20
2018-10-11T04:15:09.651Z,25.70
2018-10-11T04:16:09.802Z,22.80
2018-10-11T04:17:09.948Z,24.20
2018-10-11T04:18:10.098Z,24.50
2018-10-11T04:19:10.248Z,22.30
2018-10-11T04:20:10.397Z,22.40
2018-10-11T04:21:10.547Z,23.80
2018-10-11T04:22:10.700Z,24.20
2018-10-11T04:23:10.848Z,23.40
2018-10-11T04:24:10.999Z,24.10
2018-10-11T04:25:11.147Z,24.50
2018-10-11T04:26:11.297Z,22.80
2018-10-11T04:27:11.452Z,27.10
2018-10-11T04:28:11.597Z,27.70
2018-10-11T04:29:11.747Z,29.60
2018-10-11T04:30:11.948Z,32.20
2018-10-11T04:31:12.048Z,27.70
2018-10-11T04:32:12.198Z,29.60
2018-10-11T04:33:12.345Z,28.20
2018-10-11T04:34:12.496Z,25.70
2018-10-11T04:35:12.645Z,24.60
2018-10-11T04:36:12.814Z,25.00
2018-10-11T04:37:12.945Z,25.80
2018-10-11T04:38:13.097Z,30.00
2018-10-11T04:39:13.248Z,24.40
2018-10-11T04:40:13.398Z,25.10
2018-10-11T04:41:13.545Z,26.60
2018-10-11T04:42:13.698Z,24.70
2018-10-11T04:43:14.031Z,24.90
2018-10-11T04:44:13.991Z,25.10
2018-10-11T04:45:14.143Z,23.90
2018-10-11T04:46:14.292Z,24.10
2018-10-11T04:47:14.441Z,24.10
2018-10-11T04:48:14.589Z,23.00
2018-10-11T04:49:14.739Z,24.30
2018-10-11T04:50:14.888Z,23.70
2018-10-11T04:51:15.037Z,27.10
2018-10-11T04:52:15.186Z,28.10
2018-10-11T04:53:15.336Z,25.70
2018-10-11T04:54:15.490Z,25.60
2018-10-11T04:55:15.637Z,26.00
2018-10-11T04:56:15.787Z,26.70
2018-10-11T04:57:15.938Z,26.20
2018-10-11T04:58:16.088Z,29.60
2018-10-11T04:59:16.239Z,26.60
2018-10-11T05:00:16.384Z,27.70
2018-10-11T05:01:16.537Z,28.60
2018-10-11T05:02:16.681Z,26.90
2018-10-11T05:03:16.826Z,28.40
2018-10-11T05:04:16.979Z,30.00
2018-10-11T05:05:17.140Z,32.00
2018-10-11T05:06:17.275Z,31.90
2018-10-11T05:07:17.424Z,33.40
2018-10-11T05:08:17.582Z,32.20
2018-10-11T05:09:17.731Z,33.50
2018-10-11T05:10:17.878Z,33.70
2018-10-11T05:11:18.028Z,37.00
2018-10-11T05:12:18.178Z,31.40
2018-10-11T05:13:18.327Z,31.00
2018-10-11T05:14:18.475Z,31.70
2018-10-11T05:15:18.622Z,32.10
2018-10-11T05:16:18.773Z,32.00
2018-10-11T05:17:18.962Z,32.10
2018-10-11T05:18:19.071Z,31.60
2018-10-11T05:19:19.227Z,29.90
2018-10-11T05:20:19.372Z,29.80
2018-10-11T05:21:19.562Z,28.30
2018-10-11T05:22:19.673Z,28.70
2018-10-11T05:23:19.822Z,29.70
2018-10-11T05:24:19.975Z,33.10
2018-10-11T05:25:20.121Z,31.00
2018-10-11T05:26:20.271Z,30.70
2018-10-11T05:27:20.420Z,32.20
2018-10-11T05:28:20.568Z,32.60
2018-10-11T05:29:20.717Z,36.20
2018-10-11T05:30:20.868Z,32.10
2018-10-11T05:31:21.017Z,35.40
2018-10-11T05:32:21.234Z,36.20
2018-10-11T05:33:21.314Z,35.60
2018-10-11T05:34:21.463Z,36.40
2018-10-11T05:35:21.611Z,32.70
2018-10-11T05:36:21.764Z,36.60
2018-10-11T05:37:21.912Z,32.70
2018-10-11T05:38:22.060Z,33.40
2018-10-11T05:39:22.209Z,34.00
2018-10-11T05:40:22.359Z,35.90
2018-10-11T05:41:22.508Z,35.00
2018-10-11T05:42:22.657Z,31.90
2018-10-11T05:43:22.805Z,33.10
2018-10-11T05:44:22.976Z,31.50
2018-10-11T05:45:23.104Z,29.80
2018-10-11T05:46:23.256Z,30.70
2018-10-11T05:47:23.406Z,29.50
2018-10-11T05:48:23.553Z,32.80
2018-10-11T05:49:23.703Z,29.70
2018-10-11T05:50:23.915Z,29.70
2018-10-11T05:51:24.004Z,33.10
2018-10-11T05:52:24.152Z,32.00
2018-10-11T05:53:24.301Z,28.80
2018-10-11T05:54:24.451Z,29.00
2018-10-11T05:55:24.596Z,28.10
2018-10-11T05:56:24.748Z,27.30
2018-10-11T05:57:24.896Z,28.90
2018-10-11T05:58:25.044Z,27.70
2018-10-11T05:59:25.217Z,25.80
2018-10-11T06:00:25.343Z,26.80
2018-10-11T06:01:25.492Z,26.60
2018-10-11T06:02:25.640Z,29.40
2018-10-11T06:03:25.792Z,29.30
2018-10-11T06:04:25.941Z,25.30
2018-10-11T06:05:26.094Z,24.20
2018-10-11T06:06:26.241Z,26.70
2018-10-11T06:07:26.390Z,28.50
2018-10-11T06:08:26.537Z,29.60
2018-10-11T06:09:26.687Z,29.00
2018-10-11T06:10:26.836Z,31.10
2018-10-11T06:11:26.992Z,26.20
2018-10-11T06:12:27.136Z,28.10
2018-10-11T06:13:27.285Z,29.80
2018-10-11T06:14:27.435Z,25.20
2018-10-11T06:15:27.586Z,26.80
2018-10-11T06:16:27.732Z,24.30
2018-10-11T06:17:27.881Z,23.90
2018-10-11T06:18:28.032Z,26.00
2018-10-11T06:19:28.181Z,26.40
2018-10-11T06:20:28.328Z,25.00
2018-10-11T06:21:28.478Z,25.90
2018-10-11T06:22:28.626Z,23.80
2018-10-11T06:23:28.781Z,25.00
2018-10-11T06:24:28.925Z,24.60
2018-10-11T06:25:29.074Z,25.20
2018-10-11T06:26:29.223Z,24.80
2018-10-11T06:27:29.375Z,24.10
2018-10-11T06:28:29.520Z,26.20
2018-10-11T06:29:29.668Z,24.80
2018-10-11T06:30:29.818Z,23.00
2018-10-11T06:31:29.968Z,26.30
2018-10-11T06:32:30.116Z,24.40
2018-10-11T06:33:30.269Z,25.60
2018-10-11T06:34:30.417Z,23.30
2018-10-11T06:35:30.566Z,24.60
2018-10-11T06:36:30.745Z,23.60
2018-10-11T06:37:30.867Z,23.20
2018-10-11T06:38:31.015Z,24.70
2018-10-11T06:39:31.165Z,22.60
2018-10-11T06:40:31.312Z,21.80
2018-10-11T06:41:31.463Z,21.60
2018-10-11T06:42:31.722Z,18.50
2018-10-11T06:43:31.763Z,21.00
2018-10-11T06:44:31.915Z,22.70
2018-10-11T06:45:32.067Z,21.10
2018-10-11T06:46:32.209Z,20.90
2018-10-11T06:47:32.367Z,16.70
2018-10-11T06:48:32.510Z,18.60
2018-10-11T06:49:32.657Z,20.90
2018-10-11T06:50:32.809Z,17.50
2018-10-11T06:51:32.962Z,17.90
2018-10-11T06:52:33.107Z,16.20
2018-10-11T06:53:33.261Z,16.70
2018-10-11T06:54:33.403Z,16.90
2018-10-11T06:55:33.560Z,18.40
2018-10-11T06:56:33.705Z,16.70
2018-10-11T06:57:33.855Z,17.60
2018-10-11T06:58:34.006Z,20.20
2018-10-11T06:59:34.155Z,17.60
2018-10-11T07:00:34.304Z,15.60
2018-10-11T07:01:34.508Z,18.00
2018-10-11T07:02:34.605Z,15.30
2018-10-11T07:03:34.755Z,13.00
2018-10-11T07:04:34.902Z,14.90
2018-10-11T07:05:35.053Z,16.90
2018-10-11T07:06:35.201Z,14.80
2018-10-11T07:07:35.352Z,14.50
2018-10-11T07:08:35.501Z,15.00
2018-10-11T07:09:35.651Z,14.60
2018-10-11T07:10:35.801Z,13.20
2018-10-11T07:11:35.949Z,14.40
2018-10-11T07:12:36.102Z,15.10
2018-10-11T07:13:36.252Z,14.40
2018-10-11T07:14:36.401Z,17.70
2018-10-11T07:15:36.549Z,16.70
2018-10-11T07:16:36.701Z,17.10
2018-10-11T07:17:36.864Z,15.10
2018-10-11T07:18:37.022Z,13.90
2018-10-11T07:19:37.159Z,15.90
2018-10-11T07:20:37.300Z,13.70
2018-10-11T07:21:37.450Z,18.50
2018-10-11T07:22:37.602Z,15.20
2018-10-11T07:23:37.751Z,14.40
2018-10-11T07:24:37.901Z,14.90
2018-10-11T07:25:38.051Z,15.90
2018-10-11T07:26:38.201Z,14.50
2018-10-11T07:27:38.355Z,15.90
2018-10-11T07:28:38.500Z,14.60
2018-10-11T07:29:38.650Z,16.30
2018-10-11T07:30:38.799Z,15.30
2018-10-11T07:31:38.949Z,18.00
2018-10-11T07:32:39.097Z,16.80
2018-10-11T07:33:39.246Z,15.30
2018-10-11T07:34:39.483Z,19.60
2018-10-11T07:35:39.548Z,18.10
2018-10-11T07:36:39.698Z,18.30
2018-10-11T07:37:39.849Z,18.40
2018-10-11T07:38:39.996Z,18.70
2018-10-11T07:39:40.146Z,17.30
2018-10-11T07:40:40.388Z,17.10
2018-10-11T07:41:40.447Z,18.80
2018-10-11T07:42:40.596Z,16.80
2018-10-11T07:43:40.745Z,17.00
2018-10-11T07:44:40.900Z,16.10
2018-10-11T07:45:41.125Z,15.80
2018-10-11T07:46:41.203Z,16.90
2018-10-11T07:47:41.351Z,15.70
2018-10-11T07:48:41.502Z,15.90
2018-10-11T07:49:41.655Z,16.80
2018-10-11T07:50:41.803Z,16.70
2018-10-11T07:51:41.953Z,17.50
2018-10-11T07:52:42.152Z,18.50
2018-10-11T07:53:42.254Z,15.30
2018-10-11T07:54:42.403Z,15.70
2018-10-11T07:55:42.553Z,19.60
2018-10-11T07:56:42.704Z,18.40
2018-10-11T07:57:42.851Z,22.10
2018-10-11T07:58:43.011Z,20.90
2018-10-11T07:59:43.155Z,21.50
2018-10-11T08:00:43.306Z,23.00
2018-10-11T08:01:43.511Z,23.00
2018-10-11T08:02:43.606Z,23.00
2018-10-11T08:03:43.759Z,29.80
2018-10-11T08:04:43.912Z,71.40
2018-10-11T08:05:44.060Z,36.10
2018-10-11T08:06:44.208Z,31.70
2018-10-11T08:07:44.370Z,28.40
2018-10-11T08:08:44.511Z,25.50
2018-10-11T08:09:44.663Z,26.70
2018-10-11T08:10:44.828Z,24.50
2018-10-11T08:11:45.151Z,22.60
2018-10-11T08:12:45.117Z,23.20
2018-10-11T08:13:45.269Z,22.90
2018-10-11T08:14:45.433Z,23.80
2018-10-11T08:15:45.570Z,22.30
2018-10-11T08:16:45.851Z,23.70
2018-10-11T08:17:46.219Z,22.50
2018-10-11T08:18:46.054Z,23.70
2018-10-11T08:19:46.248Z,22.60
2018-10-11T08:20:46.331Z,21.80
2018-10-11T08:21:46.551Z,21.30
2018-10-11T08:22:46.631Z,22.10
2018-10-11T08:23:46.786Z,22.00
2018-10-11T08:24:47.064Z,21.50
2018-10-11T08:25:47.479Z,21.70
2018-10-11T08:26:47.292Z,22.20
2018-10-11T08:27:47.391Z,21.00
2018-10-11T08:28:47.540Z,22.50
2018-10-11T08:29:47.690Z,22.00
2018-10-11T08:30:47.842Z,23.80
2018-10-11T08:31:48.058Z,21.10
2018-10-11T08:32:48.147Z,22.20
2018-10-11T08:33:48.297Z,24.20
2018-10-11T08:34:48.453Z,22.40
2018-10-11T08:35:48.599Z,24.40
2018-10-11T08:36:48.749Z,24.80
2018-10-11T08:37:48.956Z,22.70
2018-10-11T08:38:49.057Z,24.50
2018-10-11T08:39:49.209Z,20.10
2018-10-11T08:40:49.362Z,20.40
2018-10-11T08:41:49.510Z,19.50
2018-10-11T08:42:49.663Z,19.50
2018-10-11T08:43:49.823Z,21.20
2018-10-11T08:44:49.976Z,18.50
2018-10-11T08:45:50.119Z,21.30
2018-10-11T08:46:50.268Z,18.50
2018-10-11T08:47:50.423Z,19.50
2018-10-11T08:48:50.571Z,19.30
2018-10-11T08:49:50.728Z,17.10
2018-10-11T08:50:50.898Z,17.60
2018-10-11T08:51:51.032Z,19.20
2018-10-11T08:52:51.181Z,20.90
2018-10-11T08:53:51.335Z,19.10
2018-10-11T08:54:51.528Z,17.80
2018-10-11T08:55:51.695Z,17.80
2018-10-11T08:56:51.796Z,16.10
2018-10-11T08:57:51.949Z,17.10
2018-10-11T08:58:52.100Z,17.70
2018-10-11T08:59:52.253Z,19.00
2018-10-11T09:00:52.403Z,17.00
2018-10-11T09:01:52.556Z,17.20
2018-10-11T09:02:52.711Z,17.50
2018-10-11T09:03:53.089Z,20.40
2018-10-11T09:04:53.015Z,16.80
2018-10-11T09:05:53.167Z,18.80
2018-10-11T09:06:53.319Z,17.00
2018-10-11T09:07:53.472Z,19.20
2018-10-11T09:08:53.626Z,22.10
2018-10-11T09:09:53.915Z,17.00
2018-10-11T09:10:53.952Z,17.80
2018-10-11T09:11:54.085Z,18.20
2018-10-11T09:12:54.239Z,16.90
2018-10-11T09:13:54.391Z,18.10
2018-10-11T09:14:54.543Z,18.90
2018-10-11T09:15:54.698Z,16.40
2018-10-11T09:16:54.850Z,16.70
2018-10-11T09:17:55.004Z,18.00
2018-10-11T09:18:55.157Z,17.50
2018-10-11T09:19:55.315Z,16.30
2018-10-11T09:20:55.465Z,14.20
2018-10-11T09:21:55.618Z,16.30
2018-10-11T09:22:55.770Z,18.60
2018-10-11T09:23:55.924Z,17.40
2018-10-11T09:24:56.076Z,14.70
2018-10-11T09:25:56.227Z,16.10
2018-10-11T09:26:56.382Z,15.80
2018-10-11T09:27:56.533Z,16.50
2018-10-11T09:28:56.689Z,15.30
2018-10-11T09:29:56.841Z,16.60
2018-10-11T09:30:56.996Z,15.20
2018-10-11T09:31:57.149Z,16.30
2018-10-11T09:32:57.301Z,14.00
2018-10-11T09:33:57.456Z,13.00
2018-10-11T09:34:57.610Z,14.80
2018-10-11T09:35:57.765Z,13.50
2018-10-11T09:36:57.919Z,13.30
2018-10-11T09:37:58.070Z,16.20
2018-10-11T09:38:58.226Z,13.30
2018-10-11T09:39:58.379Z,14.40
2018-10-11T09:40:58.531Z,13.00
2018-10-11T09:41:58.685Z,13.60
2018-10-11T09:42:58.845Z,14.60
2018-10-11T09:43:58.992Z,14.50
2018-10-11T09:44:59.147Z,11.70
2018-10-11T09:45:59.301Z,12.90
2018-10-11T09:46:59.455Z,13.40
2018-10-11T09:47:59.608Z,14.90
2018-10-11T09:48:59.768Z,13.10
2018-10-11T09:49:59.922Z,14.50
2018-10-11T09:51:00.077Z,11.90
2018-10-11T09:52:00.231Z,12.70
2018-10-11T09:53:00.384Z,15.70
2018-10-11T09:54:00.545Z,14.20
2018-10-11T09:55:00.702Z,15.40
2018-10-11T09:56:01.315Z,14.50
2018-10-11T09:57:01.001Z,12.40
2018-10-11T09:58:01.160Z,13.70
2018-10-11T09:59:01.312Z,13.10
2018-10-11T10:00:01.468Z,16.10
2018-10-11T10:01:01.622Z,13.00
2018-10-11T10:02:01.828Z,14.00
2018-10-11T10:03:01.939Z,12.20
2018-10-11T10:04:02.096Z,11.80
2018-10-11T10:05:02.243Z,10.80
2018-10-11T10:06:02.407Z,11.10
2018-10-11T10:07:02.552Z,12.80
2018-10-11T10:08:02.707Z,10.50
2018-10-11T10:09:02.865Z,10.80
2018-10-11T10:10:03.115Z,11.50
2018-10-11T10:11:03.171Z,12.10
2018-10-11T10:12:03.328Z,9.30
2018-10-11T10:13:03.487Z,11.10
2018-10-11T10:14:03.642Z,10.40
2018-10-11T10:15:03.797Z,9.60
2018-10-11T10:16:03.954Z,11.10
2018-10-11T10:17:04.107Z,10.20
2018-10-11T10:18:04.258Z,11.50
2018-10-11T10:19:04.418Z,9.30
2018-10-11T10:20:04.577Z,10.50
2018-10-11T10:21:04.790Z,12.10
2018-10-11T10:22:04.889Z,10.30
2018-10-11T10:23:05.041Z,9.30
2018-10-11T10:24:05.200Z,9.80
2018-10-11T10:25:05.353Z,9.50
2018-10-11T10:26:05.512Z,9.60
2018-10-11T10:27:05.757Z,12.10
2018-10-11T10:28:05.832Z,9.50
2018-10-11T10:29:05.986Z,12.80
2018-10-11T10:30:06.131Z,10.10
2018-10-11T10:31:06.305Z,9.30
2018-10-11T10:32:06.474Z,9.20
2018-10-11T10:33:06.629Z,10.30
2018-10-11T10:34:06.852Z,11.60
2018-10-11T10:35:06.935Z,9.10
2018-10-11T10:36:07.090Z,7.60
2018-10-11T10:37:07.261Z,8.90
2018-10-11T10:38:07.421Z,8.40
2018-10-11T10:39:07.560Z,9.70
2018-10-11T10:40:07.776Z,10.80
2018-10-11T10:41:07.872Z,8.30
2018-10-11T10:42:08.026Z,8.30
2018-10-11T10:43:08.182Z,9.80
2018-10-11T10:44:08.341Z,10.50
2018-10-11T10:45:08.499Z,8.80
2018-10-11T10:46:08.653Z,9.50
2018-10-11T10:47:08.810Z,8.20
2018-10-11T10:48:08.968Z,9.60
2018-10-11T10:49:09.126Z,9.10
2018-10-11T10:50:09.281Z,9.10
2018-10-11T10:51:09.439Z,9.90
2018-10-11T10:52:09.593Z,9.50
2018-10-11T10:53:09.755Z,8.10
2018-10-11T10:54:09.949Z,9.80
2018-10-11T10:55:10.065Z,8.00
2018-10-11T10:56:10.222Z,9.90
2018-10-11T10:57:10.383Z,12.10
2018-10-11T10:58:10.541Z,8.90
2018-10-11T10:59:10.697Z,9.10
2018-10-11T11:00:10.853Z,9.70
2018-10-11T11:01:11.010Z,9.30
2018-10-11T11:02:11.166Z,9.60
2018-10-11T11:03:11.326Z,9.80
2018-10-11T11:04:11.487Z,8.50
2018-10-11T11:05:11.645Z,10.30
2018-10-11T11:06:11.807Z,9.20
2018-10-11T11:07:11.992Z,9.20
2018-10-11T11:08:12.119Z,10.60
2018-10-11T11:09:12.276Z,11.20
2018-10-11T11:10:12.436Z,9.20
2018-10-11T11:11:12.597Z,9.00
2018-10-11T11:12:12.752Z,8.00
2018-10-11T11:13:13.013Z,9.70
2018-10-11T11:14:13.068Z,8.70
2018-10-11T11:15:13.225Z,8.70
2018-10-11T11:16:13.382Z,9.10
2018-10-11T11:17:13.536Z,10.20
2018-10-11T11:18:13.696Z,9.10
2018-10-11T11:19:13.855Z,8.20
2018-10-11T11:20:14.012Z,12.10
2018-10-11T11:21:14.166Z,11.10
2018-10-11T11:22:14.322Z,9.30
2018-10-11T11:23:14.480Z,11.10
2018-10-11T11:24:14.644Z,10.50
2018-10-11T11:25:14.928Z,8.60
2018-10-11T11:26:14.955Z,9.70
2018-10-11T11:27:15.115Z,8.70
2018-10-11T11:28:15.280Z,7.70
2018-10-11T11:29:15.429Z,8.70
2018-10-11T11:30:15.587Z,7.60
2018-10-11T11:31:15.745Z,9.50
2018-10-11T11:32:15.903Z,7.80
2018-10-11T11:33:16.064Z,8.20
2018-10-11T11:34:16.218Z,10.50
2018-10-11T11:35:16.376Z,9.20
2018-10-11T11:36:16.536Z,8.20
2018-10-11T11:37:16.694Z,7.10
2018-10-11T11:38:16.854Z,10.90
2018-10-11T11:39:17.010Z,8.00
2018-10-11T11:40:17.165Z,8.70
2018-10-11T11:41:17.322Z,7.20
2018-10-11T11:42:17.480Z,9.40
2018-10-11T11:43:17.639Z,9.10
2018-10-11T11:44:17.797Z,7.80
2018-10-11T11:45:17.957Z,8.30
2018-10-11T11:46:18.114Z,8.10
2018-10-11T11:47:18.271Z,9.60
2018-10-11T11:48:18.440Z,9.60
2018-10-11T11:49:18.590Z,11.50
2018-10-11T11:50:18.757Z,9.40
2018-10-11T11:51:18.904Z,8.30
2018-10-11T11:52:19.063Z,7.50
2018-10-11T11:53:19.220Z,9.30
2018-10-11T11:54:19.378Z,8.00
2018-10-11T11:55:19.542Z,8.50
2018-10-11T11:56:19.700Z,8.70
2018-10-11T11:57:19.858Z,7.80
2018-10-11T11:58:20.017Z,8.50
2018-10-11T11:59:20.175Z,8.00
2018-10-11T12:00:20.333Z,9.00
2018-10-11T12:01:20.494Z,8.20
2018-10-11T12:02:20.652Z,9.70
2018-10-11T12:03:20.811Z,9.90
2018-10-11T12:04:20.967Z,8.60
2018-10-11T12:05:21.130Z,8.90
2018-10-11T12:06:21.288Z,7.40
2018-10-11T12:07:21.445Z,7.00
2018-10-11T12:08:21.606Z,7.50
2018-10-11T12:09:21.764Z,10.90
2018-10-11T12:10:21.928Z,8.20
2018-10-11T12:11:22.088Z,8.40
2018-10-11T12:12:22.239Z,9.70
2018-10-11T12:13:22.397Z,8.20
2018-10-11T12:14:22.555Z,8.80
2018-10-11T12:15:22.714Z,8.00
2018-10-11T12:16:22.871Z,7.60
2018-10-11T12:17:23.033Z,7.90
2018-10-11T12:18:23.193Z,8.70
2018-10-11T12:19:23.350Z,7.90
2018-10-11T12:20:23.511Z,7.90
2018-10-11T12:21:23.670Z,9.40
2018-10-11T12:22:23.828Z,8.90
2018-10-11T12:23:23.987Z,7.20
2018-10-11T12:24:24.149Z,7.60
2018-10-11T12:25:24.310Z,7.50
2018-10-11T12:26:24.530Z,7.60
2018-10-11T12:27:24.627Z,7.10
2018-10-11T12:28:24.882Z,8.50
2018-10-11T12:29:24.949Z,8.70
2018-10-11T12:30:25.109Z,9.90
2018-10-11T12:31:25.270Z,9.20
2018-10-11T12:32:25.426Z,7.50
2018-10-11T12:33:25.589Z,7.10
2018-10-11T12:34:25.749Z,7.50
2018-10-11T12:35:25.909Z,9.90
2018-10-11T12:36:26.072Z,7.30
2018-10-11T12:37:26.228Z,8.00
2018-10-11T12:38:26.389Z,7.70
2018-10-11T12:39:26.549Z,7.30
2018-10-11T12:40:26.703Z,7.40
2018-10-11T12:41:26.863Z,7.80
2018-10-11T12:42:27.051Z,7.90
2018-10-11T12:43:27.178Z,6.40
2018-10-11T12:44:27.337Z,8.80
2018-10-11T12:45:27.499Z,8.90
2018-10-11T12:46:27.655Z,8.20
2018-10-11T12:47:27.815Z,9.70
2018-10-11T12:48:27.979Z,7.30
2018-10-11T12:49:28.267Z,8.60
2018-10-11T12:50:28.297Z,7.30
2018-10-11T12:51:28.456Z,8.60
2018-10-11T12:52:28.615Z,8.20
2018-10-11T12:53:28.775Z,8.00
2018-10-11T12:54:28.934Z,7.70
2018-10-11T12:55:29.094Z,9.30
2018-10-11T12:56:29.333Z,7.80
2018-10-11T12:57:29.439Z,7.90
2018-10-11T12:58:29.564Z,6.90
2018-10-11T12:59:29.734Z,6.70